• Join FlightAware (Why Join?)
  • Login
  • US Flag 
07:12AM EDT


 

Airport Tracker/Info


-or-


 

Live Flight TrackerFlight Track Log ✈ ASH3770 ✈ 29-Jun-2013 ✈ KSAT - KORD

Flight Track Log - Related Links

Times and Time Zones

All times are in EDT time to prevent confusion due to time zone crossing. See the ASH3770 flight status page for this flight to view local times or setup timezone preferences in your user account.

Time Position Orientation Groundspeed Altitude Reporting Facility
EDT Latitude Longitude Course Direction KTS MPH feet Rate Location/Type
07:23AM 29.5175 -98.4525 North 179 206 1,500  Level Houston Center
07:24AM 29.4953 -98.4167 125° Southeast 201 231 2,800 1,800 Climbing Houston Center
07:25AM 29.4981 -98.3689 86° East 223 257 4,100 1,800 Climbing Houston Center
07:26AM 29.8678 -98.4221 North  Level FlightAware Approximate
07:26AM 29.5517 -98.3508 16° North 225 259 6,000  Level Houston Center
07:27AM 29.9795 -98.4064 11° North  Level FlightAware Approximate
07:27AM 29.6167 -98.3742 343° North 248 285 7,700  Level Houston Center
07:28AM 30.0903 -98.3833 North  Level FlightAware Approximate
07:28AM 29.6925 -98.3817 355° North 281 323 9,400  Level Houston Center
07:29AM 30.1998 -98.3620 North  Level FlightAware Approximate
07:29AM 29.7781 -98.3839 359° North 285 328 11,800  Level Houston Center
07:30AM 29.8594 -98.3856 359° North 293 337 13,400 1,680 Climbing Houston Center
07:31AM 29.9444 -98.3719 North 305 351 15,300 1,620 Climbing Houston Center
07:32AM 30.0281 -98.3392 19° North 315 362 16,800 1,440 Climbing Houston Center
07:33AM 30.1144 -98.3050 19° North 328 377 18,300 1,380 Climbing Houston Center
07:34AM 30.2042 -98.2692 19° North 341 392 19,700 1,500 Climbing Houston Center
07:35AM 30.3022 -98.2294 19° North 347 399 21,400 1,320 Climbing Houston Center
07:36AM 30.3861 -98.1986 18° North 354 407 22,500 1,140 Climbing Houston Center
07:37AM 30.4819 -98.1594 19° North 359 413 23,700 1,080 Climbing Houston Center
07:38AM 30.5819 -98.1200 19° North 371 427 24,700 1,080 Climbing Houston Center
07:39AM 30.6839 -98.0794 19° North 379 436 25,900 1,020 Climbing Houston Center
07:40AM 30.7864 -98.0389 19° North 382 440 26,800 780 Climbing Houston Center
07:41AM 30.8928 -97.9972 19° North 392 451 27,500 660 Climbing Houston Center
07:42AM 31.0031 -97.9525 19° North 408 470 28,200 660 Climbing Houston Center
07:43AM 31.1150 -97.9083 19° North 416 479 28,900 780 Climbing Houston Center
07:44AM 31.2125 -97.8725 17° North 410 472 29,700 840 Climbing Fort Worth Center
07:45AM 31.3233 -97.8267 19° North 415 478 30,500 720 Climbing Fort Worth Center
07:46AM 31.4319 -97.7811 20° North 415 478 31,200 660 Climbing Fort Worth Center
07:47AM 31.5447 -97.7350 19° North 420 483 31,900 600 Climbing Fort Worth Center
07:48AM 31.6450 -97.6964 18° North 425 489 32,500 540 Climbing Fort Worth Center
07:49AM 31.7600 -97.6503 19° North 430 495 33,000 240 Climbing Fort Worth Center
07:50AM 31.8708 -97.6042 19° North 425 489 33,000  Level Fort Worth Center
07:51AM 31.9878 -97.5556 19° North 411 473 33,000  Level Fort Worth Center
07:52AM 32.0881 -97.5139 19° North 411 473 33,000  Level Fort Worth Center
07:53AM 32.2092 -97.4650 19° North 411 473 33,000  Level Fort Worth Center
07:54AM 32.3114 -97.4208 20° North 417 480 33,000  Level Fort Worth Center
07:55AM 32.4200 -97.3739 20° North 417 480 33,000  Level Fort Worth Center
07:56AM 32.5306 -97.3297 19° North 417 480 33,000  Level Fort Worth Center
07:57AM 32.6411 -97.2828 20° North 422 486 33,000  Level Fort Worth Center
07:58AM 32.7497 -97.2381 19° North 422 486 33,000  Level Fort Worth Center
07:59AM 32.8750 -97.1833 20° North 417 480 33,000  Level Fort Worth Center
08:00AM 32.9792 -97.1164 28° Northeast 422 486 33,000  Level Fort Worth Center
08:01AM 33.0750 -97.0489 31° Northeast 427 491 33,000  Level Fort Worth Center
08:02AM 33.1750 -96.9792 30° Northeast 427 491 33,000  Level Fort Worth Center
08:03AM 33.2728 -96.9092 31° Northeast 414 476 33,000  Level Fort Worth Center
08:04AM 33.3706 -96.8289 34° Northeast 414 476 33,000  Level Fort Worth Center
08:05AM 33.4683 -96.7486 34° Northeast 420 483 33,000  Level Fort Worth Center
08:06AM 33.5658 -96.6681 35° Northeast 420 483 33,000  Level Fort Worth Center
08:07AM 33.6614 -96.5875 35° Northeast 420 483 33,000  Level Fort Worth Center
08:08AM 33.7569 -96.5067 35° Northeast 420 483 33,100 360 Climbing Fort Worth Center
08:09AM 33.8544 -96.4256 35° Northeast 420 483 33,800 660 Climbing Fort Worth Center
08:10AM 33.9519 -96.3469 34° Northeast 420 483 34,500 780 Climbing Fort Worth Center
08:11AM 34.0472 -96.2681 34° Northeast 420 483 35,400 960 Climbing Fort Worth Center
08:12AM 34.1319 -96.1917 37° Northeast 403 464 36,500 780 Climbing Fort Worth Center
08:13AM 34.2208 -96.1150 35° Northeast 391 450 37,000 240 Climbing Fort Worth Center
08:14AM 34.3139 -96.0381 34° Northeast 391 450 37,000  Level Fort Worth Center
08:15AM 34.4050 -95.9586 36° Northeast 401 461 37,000  Level Fort Worth Center
08:16AM 34.5000 -95.8789 35° Northeast 406 467 37,000  Level Fort Worth Center
08:17AM 34.5928 -95.7967 36° Northeast 411 473 37,000  Level Fort Worth Center
08:18AM 34.6897 -95.7164 34° Northeast 411 473 37,000  Level Fort Worth Center
08:19AM 34.7825 -95.6364 35° Northeast 411 473 37,000  Level Fort Worth Center
08:21AM 34.9925 -95.4619 34° Northeast 420 483 37,000  Level Memphis Center
08:22AM 35.0878 -95.3817 35° Northeast 415 478 37,000  Level Memphis Center
08:23AM 35.1806 -95.2981 36° Northeast 415 478 37,000  Level Memphis Center
08:24AM 35.2736 -95.2172 35° Northeast 415 478 37,000  Level Memphis Center
08:25AM 35.3664 -95.1361 35° Northeast 415 478 37,000  Level Memphis Center
08:26AM 35.4592 -95.0522 36° Northeast 415 478 37,000  Level Memphis Center
08:27AM 35.5519 -94.9706 36° Northeast 415 478 37,000  Level Memphis Center
08:28AM 35.6489 -94.8867 35° Northeast 415 478 37,000  Level Memphis Center
08:29AM 35.7458 -94.8025 35° Northeast 420 483 37,000  Level Memphis Center
08:30AM 35.8386 -94.7153 37° Northeast 415 478 37,000 -240 Level Memphis Center
08:31AM 35.9353 -94.6306 35° Northeast 415 478 36,600 -780 Descending Memphis Center
08:32AM 36.0322 -94.5408 37° Northeast 415 478 35,500 -1,080 Descending Memphis Center
08:33AM 36.1353 -94.4533 34° Northeast 426 490 34,500 -960 Descending Memphis Center
08:33AM 36.1772 -94.4156 36° Northeast 443 510 34,100 -960 Descending Kansas City Center
08:34AM 36.3019 -94.3019 36° Northeast 458 527 33,000 -600 Descending Kansas City Center
08:35AM 36.4064 -94.2075 36° Northeast 463 533 33,000  Level Kansas City Center
08:36AM 36.5092 -94.1164 35° Northeast 459 528 33,000  Level Kansas City Center
08:37AM 36.6092 -94.0233 37° Northeast 453 521 33,000  Level Kansas City Center
08:38AM 36.7108 -93.9306 36° Northeast 452 520 33,000  Level Kansas City Center
08:39AM 36.8139 -93.8378 36° Northeast 455 524 33,000  Level Kansas City Center
08:40AM 36.9175 -93.7406 37° Northeast 444 511 33,000  Level Kansas City Center
08:41AM 37.0175 -93.6483 36° Northeast 444 511 33,000  Level Kansas City Center
08:42AM 37.1189 -93.5547 36° Northeast 449 517 33,000  Level Kansas City Center
08:43AM 37.2189 -93.4633 36° Northeast 446 513 33,000  Level Kansas City Center
08:45AM 37.3164 -93.3708 37° Northeast 441 507 33,000  Level Kansas City Center
08:46AM 37.4150 -93.2789 37° Northeast 439 505 33,000  Level Kansas City Center
08:47AM 37.5156 -93.1872 36° Northeast 443 510 33,000  Level Kansas City Center
08:48AM 37.6153 -93.0958 36° Northeast 442 509 33,000  Level Kansas City Center
08:49AM 37.7156 -93.0000 37° Northeast 448 516 33,000  Level Kansas City Center
08:50AM 37.8150 -92.9086 36° Northeast 442 509 33,000  Level Kansas City Center
08:51AM 37.9336 -92.7967 37° Northeast 440 506 33,000  Level Kansas City Center
08:52AM 38.0217 -92.7150 36° Northeast 440 506 33,000  Level Kansas City Center
08:53AM 38.1206 -92.6228 36° Northeast 441 507 33,000  Level Kansas City Center
08:54AM 38.2339 -92.5147 37° Northeast 441 507 33,000  Level Kansas City Center
08:55AM 38.3336 -92.4203 37° Northeast 441 507 33,000  Level Kansas City Center
08:56AM 38.4322 -92.3258 37° Northeast 439 505 33,000  Level Kansas City Center
08:57AM 38.5311 -92.2317 37° Northeast 440 506 33,000  Level Kansas City Center
08:58AM 38.6283 -92.1381 37° Northeast 437 503 33,000  Level Kansas City Center
08:59AM 38.7269 -92.0439 37° Northeast 438 504 33,000  Level Kansas City Center
09:00AM 38.8253 -91.9486 37° Northeast 440 506 33,000  Level Kansas City Center
09:01AM 38.9231 -91.8525 37° Northeast 441 507 33,000  Level Kansas City Center
09:02AM 39.0206 -91.7578 37° Northeast 440 506 33,000  Level Kansas City Center
09:03AM 39.1181 -91.6625 37° Northeast 439 505 33,000  Level Kansas City Center
09:04AM 39.2175 -91.5678 36° Northeast 440 506 33,000  Level Kansas City Center
09:05AM 39.3153 -91.4719 37° Northeast 441 507 33,000  Level Kansas City Center
09:06AM 39.4125 -91.3744 38° Northeast 442 509 33,000  Level Kansas City Center
09:07AM 39.5119 -91.2772 37° Northeast 444 511 33,000  Level Kansas City Center
09:08AM 39.6125 -91.1769 38° Northeast 450 518 33,000  Level Kansas City Center
09:09AM 39.7128 -91.0769 37° Northeast 452 520 33,000  Level Kansas City Center
09:10AM 39.8169 -90.9714 38° Northeast 452 520 33,000  Level Kansas City Center
09:11AM 39.9178 -90.8717 37° Northeast 453 521 33,000  Level Kansas City Center
09:12AM 40.0394 -90.7478 38° Northeast 460 529 33,000  Level Kansas City Center
09:13AM 40.1392 -90.6461 38° Northeast 457 526 33,000  Level Kansas City Center
09:14AM 40.2369 -90.5364 41° Northeast 462 532 33,000  Level Kansas City Center
09:15AM 40.3253 -90.4103 47° Northeast 468 539 33,000 -240 Level Kansas City Center
09:16AM 40.4133 -90.2872 47° Northeast 465 535 32,600 -1,020 Descending Kansas City Center
09:17AM 40.5019 -90.1658 46° Northeast 462 532 31,000 -1,500 Descending Kansas City Center
09:18AM 40.5803 -90.0547 47° Northeast 446 513 29,600 -1,440 Descending Kansas City Center
09:19AM 40.6622 -89.9394 47° Northeast 437 503 28,100 -1,680 Descending Kansas City Center
09:20AM 40.7631 -89.7956 47° Northeast 442 509 26,300 -1,560 Descending Kansas City Center
09:22AM 40.8656 -89.6478 47° Northeast 438 504 24,400 -960 Descending Chicago Center
09:23AM 40.9556 -89.5197 47° Northeast 435 501 24,000 -540 Descending Chicago Center
09:24AM 41.0372 -89.4025 47° Northeast 433 498 23,400 -1,380 Descending Chicago Center
09:25AM 41.1144 -89.2908 47° Northeast 417 480 21,200 -2,280 Descending Chicago Center
09:26AM 41.1964 -89.1725 47° Northeast 404 465 18,800 -2,280 Descending Chicago Center
09:27AM 41.2700 -89.0658 47° Northeast 395 455 16,600 -2,040 Descending Chicago Center
09:28AM 41.3394 -88.9594 49° Northeast 386 444 14,600 -1,860 Descending Chicago Center
09:29AM 41.4081 -88.8606 47° Northeast 369 425 12,800 -1,800 Descending Chicago Center
09:30AM 41.4875 -88.7425 48° Northeast 358 412 11,000 -840 Descending Chicago Center
09:31AM 41.5400 -88.6339 57° Northeast 356 410 11,100  Climbing Chicago Center
09:32AM 41.5864 -88.5172 62° Northeast 358 412 11,100 -60 Level Chicago Center
09:33AM 41.6417 -88.4083 56° Northeast 356 410 11,000 -60 Descending Chicago Center
09:34AM 41.7031 -88.3044 52° Northeast 356 410 11,000  Level Chicago Center
09:35AM 41.7639 -88.1992 52° Northeast 357 411 11,000  Level Chicago Center
09:36AM 41.8247 -88.0953 52° Northeast 354 407 11,000 -420 Level Chicago Center
09:37AM 41.8781 -87.9931 55° Northeast 334 384 10,200 -1,020 Descending Chicago Center
09:38AM 41.8844 -87.8644 86° East 286 329 9,000 -600 Descending Chicago Center
09:39AM 41.8833 -87.7558 91° East 289 333 9,000  Level Chicago Center
09:40AM 41.8828 -87.6469 90° East 292 336 9,000 -840 Level Chicago Center
09:41AM 41.8831 -87.5414 90° East 286 329 7,400 -1,140 Descending Chicago Center
09:42AM 41.9142 -87.4658 61° Northeast 254 292 6,700 -720 Descending Chicago Center
09:43AM 41.9728 -87.4858 346° North 234 269 6,000 -720 Descending Chicago Center
09:44AM 41.9828 -87.5869 278° West 234 269 5,300 -1,080 Descending Chicago Center
09:45AM 41.9839 -87.6692 271° West 227 261 3,800 -1,500 Descending Chicago Center